createdAt,value
2022-10-25T00:00:05.003Z,99156.97
2022-10-25T00:01:17.979Z,99155.31
2022-10-25T00:02:21.349Z,99153.34
2022-10-25T00:03:22.906Z,99155.19
2022-10-25T00:04:24.405Z,99156.47
2022-10-25T00:05:25.873Z,99158.97
2022-10-25T00:06:27.255Z,99157.13
2022-10-25T00:07:28.692Z,99158.13
2022-10-25T00:08:30.075Z,99155.94
2022-10-25T00:09:31.455Z,99160.56
2022-10-25T00:10:33.127Z,99159.28
2022-10-25T00:11:34.766Z,99156.25
2022-10-25T00:12:41.088Z,99158.28
2022-10-25T00:13:42.489Z,99163.13
2022-10-25T00:14:43.899Z,99156.50
2022-10-25T00:15:45.276Z,99164.13
2022-10-25T00:16:46.675Z,99161.31
2022-10-25T00:17:48.198Z,99161.66
2022-10-25T00:18:50.008Z,99150.47
2022-10-25T00:19:51.422Z,99158.91
2022-10-25T00:20:52.858Z,99159.88
2022-10-25T00:21:54.291Z,99159.59
2022-10-25T00:22:55.686Z,99160.56
2022-10-25T00:23:57.064Z,99167.69
2022-10-25T00:24:58.479Z,99160.91
2022-10-25T00:26:06.450Z,99162.41
2022-10-25T00:27:07.836Z,99161.56
2022-10-25T00:28:09.247Z,99160.91
2022-10-25T00:29:11.271Z,99163.09
2022-10-25T00:30:12.969Z,99163.59
2022-10-25T00:31:15.510Z,99166.72
2022-10-25T00:32:16.957Z,99158.78
2022-10-25T00:33:18.336Z,99158.50
2022-10-25T00:34:19.741Z,99163.13
2022-10-25T00:35:21.138Z,99167.56
2022-10-25T00:36:23.562Z,99168.56
2022-10-25T00:37:24.968Z,99168.25
2022-10-25T00:38:26.355Z,99170.75
2022-10-25T00:39:27.761Z,99164.94
2022-10-25T00:40:29.169Z,99164.09
2022-10-25T00:41:30.758Z,99168.41
2022-10-25T00:42:32.164Z,99164.78
2022-10-25T00:43:41.347Z,99164.44
2022-10-25T00:44:45.941Z,99159.50
2022-10-25T00:45:47.364Z,99169.75
2022-10-25T00:46:48.776Z,99164.25
2022-10-25T00:48:01.377Z,99162.44
2022-10-25T00:49:05.024Z,99168.06
2022-10-25T00:50:13.952Z,99163.59
2022-10-25T00:51:15.399Z,99165.88
2022-10-25T00:52:16.799Z,99164.75
2022-10-25T00:53:20.270Z,99161.56
2022-10-25T00:54:29.363Z,99163.91
2022-10-25T00:55:30.820Z,99158.94
2022-10-25T00:56:35.808Z,99162.56
2022-10-25T00:57:40.721Z,99158.94
2022-10-25T00:58:46.143Z,99159.59
2022-10-25T00:59:47.933Z,99163.56
2022-10-25T01:00:49.615Z,99160.06
2022-10-25T01:01:53.639Z,99160.41
2022-10-25T01:03:59.928Z,99158.41
2022-10-25T01:05:01.923Z,99164.34
2022-10-25T01:06:04.785Z,99165.34
2022-10-25T01:07:06.298Z,99161.88
2022-10-25T01:08:07.713Z,99166.81
2022-10-25T01:09:10.644Z,99160.69
2022-10-25T01:10:12.259Z,99156.06
2022-10-25T01:11:13.925Z,99166.63
2022-10-25T01:12:15.363Z,99162.34
2022-10-25T01:13:16.901Z,99157.03
2022-10-25T01:14:18.597Z,99162.34
2022-10-25T01:15:23.361Z,99154.09
2022-10-25T01:16:30.641Z,99162.19
2022-10-25T01:17:44.024Z,99162.34
2022-10-25T01:18:54.368Z,99157.84
2022-10-25T01:19:58.480Z,99161.31
2022-10-25T01:21:11.880Z,99154.19
2022-10-25T01:22:20.252Z,99161.47
2022-10-25T01:23:24.619Z,99158.81
2022-10-25T01:24:41.924Z,99158.69
2022-10-25T01:26:01.584Z,99159.97
2022-10-25T01:27:06.016Z,99159.31
2022-10-25T01:28:20.182Z,99164.78
2022-10-25T01:29:51.031Z,99164.44
2022-10-25T01:31:04.625Z,99163.53
2022-10-25T01:32:06.004Z,99161.53
2022-10-25T01:33:19.344Z,99164.63
2022-10-25T01:34:26.233Z,99164.09
2022-10-25T01:35:30.041Z,99164.72
2022-10-25T01:36:31.403Z,99164.38
2022-10-25T01:37:37.852Z,99167.31
2022-10-25T01:38:42.660Z,99161.56
2022-10-25T01:39:48.274Z,99162.91
2022-10-25T01:41:01.191Z,99165.91
2022-10-25T01:42:07.275Z,99169.94
2022-10-25T01:43:11.244Z,99163.94
2022-10-25T01:44:32.968Z,99164.25
2022-10-25T01:45:41.433Z,99159.94
2022-10-25T01:46:54.636Z,99163.13
2022-10-25T01:48:09.718Z,99163.13
2022-10-25T01:49:17.037Z,99166.13
2022-10-25T01:50:23.599Z,99168.28
2022-10-25T01:51:26.324Z,99167.16
2022-10-25T01:52:28.059Z,99172.44
2022-10-25T01:53:29.456Z,99169.94
2022-10-25T01:54:30.888Z,99171.13
2022-10-25T01:55:38.915Z,99166.44
2022-10-25T01:56:45.599Z,99171.59
2022-10-25T01:58:13.300Z,99165.63
2022-10-25T01:59:24.264Z,99172.97
2022-10-25T02:00:25.932Z,99163.53
2022-10-25T02:01:33.780Z,99157.41
2022-10-25T02:02:38.368Z,99157.94
2022-10-25T02:03:53.921Z,99156.28
2022-10-25T02:05:17.135Z,99152.13
2022-10-25T02:06:53.733Z,99149.09
2022-10-25T02:08:17.952Z,99138.84
2022-10-25T02:09:19.316Z,99147.44
2022-10-25T02:10:28.692Z,99150.28
2022-10-25T02:11:31.200Z,99159.44
2022-10-25T02:12:47.096Z,99155.59
2022-10-25T02:14:07.301Z,99161.03
2022-10-25T02:15:10.860Z,99163.84
2022-10-25T02:16:16.052Z,99155.63
2022-10-25T02:17:22.786Z,99160.50
2022-10-25T02:18:26.311Z,99156.72
2022-10-25T02:19:30.848Z,99163.84
2022-10-25T02:20:34.524Z,99164.66
2022-10-25T02:21:36.740Z,99160.69
2022-10-25T02:22:39.020Z,99166.06
2022-10-25T02:23:40.627Z,99162.44
2022-10-25T02:24:44.141Z,99160.66
2022-10-25T02:25:47.683Z,99166.75
2022-10-25T02:27:58.256Z,99163.88
2022-10-25T02:29:00.474Z,99165.53
2022-10-25T02:30:01.884Z,99167.91
2022-10-25T02:31:03.693Z,99167.19
2022-10-25T02:32:05.407Z,99158.00
2022-10-25T02:33:06.877Z,99165.31
2022-10-25T02:34:08.305Z,99158.44
2022-10-25T02:35:14.761Z,99163.41
2022-10-25T02:36:23.144Z,99163.41
2022-10-25T02:37:24.596Z,99158.97
2022-10-25T02:38:26.016Z,99161.63
2022-10-25T02:39:30.652Z,99156.47
2022-10-25T02:40:33.248Z,99153.84
2022-10-25T02:41:34.651Z,99164.03
2022-10-25T02:42:36.089Z,99159.66
2022-10-25T02:43:38.436Z,99164.63
2022-10-25T02:44:39.829Z,99170.44
2022-10-25T02:45:41.203Z,99163.50
2022-10-25T02:46:42.737Z,99162.53
2022-10-25T02:47:44.347Z,99164.53
2022-10-25T02:48:46.228Z,99161.91
2022-10-25T02:49:47.662Z,99168.41
2022-10-25T02:50:49.249Z,99163.66
2022-10-25T02:52:53.011Z,99170.00
2022-10-25T02:53:54.400Z,99170.81
2022-10-25T02:54:55.805Z,99178.47
2022-10-25T02:56:04.573Z,99177.00
2022-10-25T02:57:05.959Z,99170.56
2022-10-25T02:58:07.351Z,99175.72
2022-10-25T02:59:11.022Z,99180.16
2022-10-25T03:01:19.653Z,99175.09
2022-10-25T03:02:21.152Z,99175.09
2022-10-25T03:03:22.546Z,99177.22
2022-10-25T03:04:23.945Z,99176.84
2022-10-25T03:05:25.438Z,99174.31
2022-10-25T03:06:26.835Z,99179.06
2022-10-25T03:07:28.234Z,99182.69
2022-10-25T03:08:29.928Z,99180.03
2022-10-25T03:09:31.416Z,99175.44
2022-10-25T03:10:32.820Z,99182.25
2022-10-25T03:11:34.250Z,99184.72
2022-10-25T03:12:35.651Z,99178.75
2022-10-25T03:13:37.457Z,99186.16
2022-10-25T03:14:38.849Z,99182.69
2022-10-25T03:15:40.250Z,99184.88
2022-10-25T03:16:41.721Z,99178.28
2022-10-25T03:17:43.181Z,99188.56
2022-10-25T03:18:44.587Z,99185.09
2022-10-25T03:19:46.000Z,99183.78
2022-10-25T03:20:47.427Z,99180.16
2022-10-25T03:21:48.829Z,99181.69
2022-10-25T03:22:50.217Z,99176.53
2022-10-25T03:23:51.764Z,99180.03
2022-10-25T03:24:53.166Z,99178.38
2022-10-25T03:25:55.848Z,99182.28
2022-10-25T03:26:57.282Z,99184.72
2022-10-25T03:27:59.027Z,99181.25
2022-10-25T03:29:00.443Z,99179.28
2022-10-25T03:30:01.936Z,99183.44
2022-10-25T03:31:03.358Z,99190.75
2022-10-25T03:32:04.860Z,99186.31
2022-10-25T03:33:06.250Z,99192.28
2022-10-25T03:34:07.673Z,99190.16
2022-10-25T03:35:09.390Z,99192.50
2022-10-25T03:36:10.961Z,99192.19
2022-10-25T03:37:12.357Z,99189.25
2022-10-25T03:38:13.732Z,99188.94
2022-10-25T03:39:15.126Z,99194.06
2022-10-25T03:40:16.644Z,99192.56
2022-10-25T03:41:18.036Z,99183.13
2022-10-25T03:42:19.600Z,99183.66
2022-10-25T03:43:20.988Z,99186.13
2022-10-25T03:44:22.409Z,99180.84
2022-10-25T03:45:23.808Z,99178.03
2022-10-25T03:46:25.203Z,99183.88
2022-10-25T03:47:26.608Z,99180.91
2022-10-25T03:48:28.024Z,99175.63
2022-10-25T03:49:29.443Z,99182.00
2022-10-25T03:50:30.824Z,99181.31
2022-10-25T03:51:32.216Z,99176.84
2022-10-25T03:52:33.632Z,99179.94
2022-10-25T03:53:35.029Z,99179.19
2022-10-25T03:54:36.437Z,99177.41
2022-10-25T03:55:37.859Z,99176.78
2022-10-25T03:56:39.266Z,99183.75
2022-10-25T03:57:40.664Z,99183.03
2022-10-25T03:58:42.035Z,99172.19
2022-10-25T03:59:43.457Z,99184.03
2022-10-25T04:00:45.133Z,99183.38
2022-10-25T04:01:46.709Z,99179.59
2022-10-25T04:02:48.293Z,99182.06
2022-10-25T04:03:49.731Z,99183.91
2022-10-25T04:04:51.144Z,99180.41
2022-10-25T04:05:52.603Z,99181.19
2022-10-25T04:06:53.984Z,99185.66
2022-10-25T04:07:55.401Z,99190.75
2022-10-25T04:08:57.247Z,99194.25
2022-10-25T04:09:58.627Z,99201.88
2022-10-25T04:11:00.061Z,99199.22
2022-10-25T04:12:01.488Z,99202.53
2022-10-25T04:13:02.880Z,99201.56
2022-10-25T04:14:04.328Z,99197.91
2022-10-25T04:15:06.013Z,99192.94
2022-10-25T04:16:07.871Z,99203.97
2022-10-25T04:17:09.275Z,99199.28
2022-10-25T04:18:10.662Z,99203.94
2022-10-25T04:19:12.070Z,99195.66
2022-10-25T04:20:13.476Z,99205.56
2022-10-25T04:21:14.872Z,99196.03
2022-10-25T04:22:16.279Z,99200.84
2022-10-25T04:23:17.660Z,99196.56
2022-10-25T04:24:19.064Z,99197.53
2022-10-25T04:25:20.578Z,99197.75
2022-10-25T04:26:21.981Z,99191.44
2022-10-25T04:27:23.368Z,99191.44
2022-10-25T04:28:25.091Z,99197.00
2022-10-25T04:29:26.547Z,99193.91
2022-10-25T04:30:27.988Z,99189.03
2022-10-25T04:31:29.405Z,99194.44
2022-10-25T04:32:30.784Z,99194.13
2022-10-25T04:33:32.184Z,99192.16
2022-10-25T04:34:33.568Z,99192.72
2022-10-25T04:35:34.987Z,99189.75
2022-10-25T04:36:36.368Z,99193.34
2022-10-25T04:37:37.762Z,99196.19
2022-10-25T04:38:39.161Z,99188.94
2022-10-25T04:39:40.555Z,99191.28
2022-10-25T04:40:41.964Z,99193.78
2022-10-25T04:41:43.387Z,99190.97
2022-10-25T04:42:45.074Z,99188.03
2022-10-25T04:43:47.259Z,99183.75
2022-10-25T04:44:48.644Z,99188.63
2022-10-25T04:45:50.296Z,99188.09
2022-10-25T04:46:52.071Z,99182.00
2022-10-25T04:47:53.427Z,99191.44
2022-10-25T04:48:54.840Z,99192.13
2022-10-25T04:49:56.231Z,99193.91
2022-10-25T04:51:00.468Z,99181.69
2022-10-25T04:52:01.877Z,99189.47
2022-10-25T04:53:03.904Z,99187.97
2022-10-25T04:54:05.370Z,99191.44
2022-10-25T04:55:06.895Z,99181.84
2022-10-25T04:56:10.245Z,99178.50
2022-10-25T04:57:11.631Z,99177.16
2022-10-25T04:58:13.022Z,99178.69
2022-10-25T04:59:14.420Z,99180.13
2022-10-25T05:00:15.874Z,99181.38
2022-10-25T05:01:17.888Z,99175.88
2022-10-25T05:02:19.531Z,99177.28
2022-10-25T05:03:20.995Z,99188.69
2022-10-25T05:04:22.456Z,99183.56
2022-10-25T05:05:24.592Z,99193.00
2022-10-25T05:06:26.515Z,99194.34
2022-10-25T05:07:27.921Z,99195.19
2022-10-25T05:08:29.327Z,99200.03
2022-10-25T05:09:30.708Z,99200.16
2022-10-25T05:10:32.112Z,99205.75
2022-10-25T05:11:33.555Z,99200.91
2022-10-25T05:12:35.247Z,99202.09
2022-10-25T05:13:37.612Z,99202.09
2022-10-25T05:14:38.992Z,99201.50
2022-10-25T05:15:40.391Z,99198.97
2022-10-25T05:16:42.201Z,99199.28
2022-10-25T05:17:43.604Z,99200.09
2022-10-25T05:18:45.041Z,99196.03
2022-10-25T05:19:46.427Z,99197.41
2022-10-25T05:20:54.666Z,99194.75
2022-10-25T05:21:56.058Z,99195.59
2022-10-25T05:22:57.439Z,99190.63
2022-10-25T05:24:01.802Z,99182.31
2022-10-25T05:25:04.051Z,99184.13
2022-10-25T05:26:09.945Z,99191.88
2022-10-25T05:27:11.387Z,99193.25
2022-10-25T05:28:12.910Z,99191.44
2022-10-25T05:29:14.403Z,99188.81
2022-10-25T05:30:15.908Z,99198.84
2022-10-25T05:31:18.975Z,99193.16
2022-10-25T05:32:20.383Z,99192.91
2022-10-25T05:33:21.794Z,99197.34
2022-10-25T05:34:23.212Z,99202.19
2022-10-25T05:35:24.615Z,99202.59
2022-10-25T05:36:26.497Z,99203.97
2022-10-25T05:37:28.065Z,99213.78
2022-10-25T05:38:32.037Z,99220.28
2022-10-25T05:39:36.975Z,99216.38
2022-10-25T05:40:38.363Z,99220.69
2022-10-25T05:41:39.776Z,99221.19
2022-10-25T05:42:41.185Z,99221.06
2022-10-25T05:43:42.948Z,99219.25
2022-10-25T05:44:44.360Z,99224.00
2022-10-25T05:45:45.813Z,99225.25
2022-10-25T05:46:47.210Z,99228.88
2022-10-25T05:47:48.604Z,99230.53
2022-10-25T05:48:50.908Z,99232.28
2022-10-25T05:49:52.319Z,99231.13
2022-10-25T05:50:59.343Z,99241.16
2022-10-25T05:52:09.951Z,99235.19
2022-10-25T05:53:11.336Z,99233.50
2022-10-25T05:54:13.807Z,99232.47
2022-10-25T05:55:15.231Z,99246.44
2022-10-25T05:56:16.963Z,99242.72
2022-10-25T05:57:18.398Z,99243.75
2022-10-25T05:58:19.798Z,99245.38
2022-10-25T05:59:21.208Z,99244.84
2022-10-25T06:00:22.581Z,99251.72
2022-10-25T06:01:24.767Z,99255.69
2022-10-25T06:02:26.331Z,99255.16
2022-10-25T06:03:27.767Z,99261.56
2022-10-25T06:04:29.191Z,99261.88
2022-10-25T06:05:32.502Z,99260.84
2022-10-25T06:06:34.540Z,99270.22
2022-10-25T06:07:35.926Z,99264.00
2022-10-25T06:08:37.896Z,99259.56
2022-10-25T06:09:39.290Z,99259.56
2022-10-25T06:10:40.764Z,99254.28
2022-10-25T06:11:42.212Z,99268.03
2022-10-25T06:12:43.723Z,99263.28
2022-10-25T06:13:45.332Z,99265.75
2022-10-25T06:14:46.714Z,99264.22
2022-10-25T06:15:48.099Z,99268.56
2022-10-25T06:16:49.595Z,99270.66
2022-10-25T06:17:50.986Z,99275.56
2022-10-25T06:18:52.659Z,99268.63
2022-10-25T06:19:54.046Z,99269.28
2022-10-25T06:20:55.445Z,99270.97
2022-10-25T06:21:56.833Z,99273.63
2022-10-25T06:22:58.219Z,99272.78
2022-10-25T06:23:59.712Z,99280.47
2022-10-25T06:25:01.096Z,99283.56
2022-10-25T06:26:03.648Z,99277.03
2022-10-25T06:27:05.076Z,99282.47
2022-10-25T06:28:06.592Z,99285.41
2022-10-25T06:29:07.980Z,99281.16
2022-10-25T06:30:09.740Z,99289.47
2022-10-25T06:31:12.530Z,99286.22
2022-10-25T06:32:13.914Z,99279.81
2022-10-25T06:33:15.323Z,99285.91
2022-10-25T06:34:16.714Z,99278.38
2022-10-25T06:35:18.144Z,99282.22
2022-10-25T06:36:21.213Z,99278.28
2022-10-25T06:37:22.635Z,99277.28
2022-10-25T06:38:24.315Z,99279.94
2022-10-25T06:39:25.695Z,99287.34
2022-10-25T06:40:27.293Z,99286.81
2022-10-25T06:41:28.736Z,99294.06
2022-10-25T06:42:30.142Z,99302.63
2022-10-25T06:43:33.266Z,99292.50
2022-10-25T06:44:34.660Z,99298.22
2022-10-25T06:45:36.057Z,99299.22
2022-10-25T06:47:04.430Z,99301.72
2022-10-25T06:48:00.141Z,99299.22
2022-10-25T06:49:01.984Z,99299.88
2022-10-25T06:50:03.569Z,99297.09
2022-10-25T06:51:06.153Z,99300.88
2022-10-25T06:52:07.594Z,99296.72
2022-10-25T06:53:09.003Z,99294.59
2022-10-25T06:54:10.423Z,99300.56
2022-10-25T06:55:11.807Z,99300.88
2022-10-25T06:56:14.885Z,99307.69
2022-10-25T06:57:16.565Z,99302.31
2022-10-25T06:58:17.948Z,99309.09
2022-10-25T06:59:19.374Z,99306.03
2022-10-25T07:00:20.834Z,99313.78
2022-10-25T07:01:23.097Z,99312.97
2022-10-25T07:02:24.836Z,99311.53
2022-10-25T07:03:26.308Z,99312.88
2022-10-25T07:04:27.729Z,99315.88
2022-10-25T07:05:29.176Z,99313.50
2022-10-25T07:07:33.739Z,99313.09
2022-10-25T07:08:35.676Z,99316.38
2022-10-25T07:09:37.059Z,99312.06
2022-10-25T07:10:38.942Z,99320.94
2022-10-25T07:11:40.371Z,99312.56
2022-10-25T07:12:41.770Z,99316.59
2022-10-25T07:13:43.636Z,99318.09
2022-10-25T07:14:45.007Z,99322.38
2022-10-25T07:15:46.440Z,99320.13
2022-10-25T07:16:47.903Z,99322.59
2022-10-25T07:17:49.574Z,99329.59
2022-10-25T07:18:51.448Z,99330.72
2022-10-25T07:19:52.860Z,99326.94
2022-10-25T07:20:58.017Z,99325.97
2022-10-25T07:21:59.436Z,99324.88
2022-10-25T07:23:02.448Z,99325.50
2022-10-25T07:24:05.768Z,99330.25
2022-10-25T07:26:18.592Z,99321.13
2022-10-25T07:27:19.981Z,99326.25
2022-10-25T07:28:21.423Z,99327.09
2022-10-25T07:29:22.921Z,99332.75
2022-10-25T07:30:24.346Z,99327.97
2022-10-25T07:31:30.288Z,99328.28
2022-10-25T07:32:31.668Z,99332.28
2022-10-25T07:33:33.042Z,99327.41
2022-10-25T07:34:34.462Z,99329.19
2022-10-25T07:35:42.067Z,99335.78
2022-10-25T07:36:53.852Z,99333.44
2022-10-25T07:37:55.247Z,99340.66
2022-10-25T07:38:56.683Z,99340.66
2022-10-25T07:39:58.068Z,99332.22
2022-10-25T07:40:59.496Z,99339.00
2022-10-25T07:42:00.898Z,99347.38
2022-10-25T07:43:02.316Z,99344.28
2022-10-25T07:44:03.817Z,99338.03
2022-10-25T07:45:05.550Z,99344.03
2022-10-25T07:46:07.307Z,99343.84
2022-10-25T07:47:08.729Z,99342.59
2022-10-25T07:48:10.120Z,99343.41
2022-10-25T07:49:11.749Z,99344.91
2022-10-25T07:50:13.181Z,99348.38
2022-10-25T07:51:15.789Z,99347.03
2022-10-25T07:52:17.200Z,99348.25
2022-10-25T07:53:18.658Z,99348.91
2022-10-25T07:54:20.072Z,99351.09
2022-10-25T07:55:21.450Z,99349.44
2022-10-25T07:56:23.883Z,99344.03
2022-10-25T07:57:25.478Z,99344.28
2022-10-25T07:58:26.881Z,99344.75
2022-10-25T07:59:28.326Z,99340.22
2022-10-25T08:00:29.888Z,99338.72
2022-10-25T08:01:31.361Z,99331.63
2022-10-25T08:02:32.796Z,99331.63
2022-10-25T08:03:34.221Z,99334.25
2022-10-25T08:04:35.616Z,99328.38
2022-10-25T08:05:36.996Z,99328.22
2022-10-25T08:06:38.410Z,99324.06
2022-10-25T08:07:39.829Z,99328.06
2022-10-25T08:08:41.462Z,99319.47
2022-10-25T08:09:42.844Z,99324.56
2022-10-25T08:10:44.292Z,99329.59
2022-10-25T08:11:45.687Z,99332.06
2022-10-25T08:12:47.982Z,99323.66
2022-10-25T08:13:49.749Z,99332.13
2022-10-25T08:14:51.137Z,99317.78
2022-10-25T08:15:53.767Z,99324.41
2022-10-25T08:16:55.170Z,99322.00
2022-10-25T08:17:57.296Z,99322.53
2022-10-25T08:18:58.701Z,99326.38
2022-10-25T08:20:00.114Z,99334.66
2022-10-25T08:21:03.362Z,99326.25
2022-10-25T08:22:05.323Z,99327.47
2022-10-25T08:23:06.751Z,99323.72
2022-10-25T08:24:08.415Z,99319.94
2022-10-25T08:25:09.934Z,99323.44
2022-10-25T08:26:11.456Z,99323.44
2022-10-25T08:27:13.008Z,99321.28
2022-10-25T08:28:14.390Z,99316.03
2022-10-25T08:29:15.781Z,99313.59
2022-10-25T08:30:17.312Z,99314.19
2022-10-25T08:31:18.764Z,99310.94
2022-10-25T08:32:20.161Z,99308.47
2022-10-25T08:33:21.597Z,99310.53
2022-10-25T08:34:23.037Z,99305.78
2022-10-25T08:35:24.466Z,99303.13
2022-10-25T08:36:25.873Z,99307.28
2022-10-25T08:37:27.288Z,99304.19
2022-10-25T08:38:28.792Z,99308.31
2022-10-25T08:39:30.200Z,99312.31
2022-10-25T08:40:39.685Z,99309.94
2022-10-25T08:41:41.050Z,99314.56
2022-10-25T08:42:45.490Z,99317.22
2022-10-25T08:44:05.354Z,99315.34
2022-10-25T08:45:28.728Z,99314.63
2022-10-25T08:46:36.660Z,99312.97
2022-10-25T08:47:45.018Z,99311.94
2022-10-25T08:48:48.983Z,99312.38
2022-10-25T08:50:05.845Z,99310.03
2022-10-25T08:51:11.411Z,99308.81
2022-10-25T08:52:21.333Z,99311.28
2022-10-25T08:53:25.134Z,99313.09
2022-10-25T08:54:38.335Z,99313.25
2022-10-25T08:55:44.571Z,99303.28
2022-10-25T08:57:14.738Z,99317.44
2022-10-25T08:58:37.048Z,99320.78
2022-10-25T08:59:40.689Z,99319.50
2022-10-25T09:00:44.040Z,99318.06
2022-10-25T09:01:49.822Z,99311.59
2022-10-25T09:02:51.260Z,99314.75
2022-10-25T09:03:52.710Z,99305.63
2022-10-25T09:04:54.228Z,99302.13
2022-10-25T09:06:04.547Z,99303.56
2022-10-25T09:07:24.575Z,99302.56
2022-10-25T09:08:55.095Z,99304.19
2022-10-25T09:10:03.962Z,99299.44
2022-10-25T09:11:31.712Z,99300.22
2022-10-25T09:12:39.336Z,99305.16
2022-10-25T09:13:40.793Z,99301.34
2022-10-25T09:14:56.794Z,99305.94
2022-10-25T09:16:04.169Z,99301.84
2022-10-25T09:17:05.549Z,99299.97
2022-10-25T09:18:14.113Z,99301.09
2022-10-25T09:19:17.105Z,99302.22
2022-10-25T09:20:18.517Z,99305.03
2022-10-25T09:21:29.227Z,99308.31
2022-10-25T09:22:31.696Z,99309.44
2022-10-25T09:23:33.244Z,99308.59
2022-10-25T09:24:47.456Z,99322.09
2022-10-25T09:25:54.012Z,99320.78
2022-10-25T09:26:55.387Z,99321.44
2022-10-25T09:28:03.988Z,99328.59
2022-10-25T09:29:18.629Z,99323.75
2022-10-25T09:30:20.063Z,99319.81
2022-10-25T09:31:24.707Z,99323.06
2022-10-25T09:32:43.823Z,99317.66
2022-10-25T09:33:46.321Z,99327.47
2022-10-25T09:34:47.954Z,99327.31
2022-10-25T09:35:57.252Z,99325.19
2022-10-25T09:37:24.998Z,99330.88
2022-10-25T09:38:32.283Z,99327.72
2022-10-25T09:39:38.905Z,99326.59
2022-10-25T09:40:50.583Z,99329.97
2022-10-25T09:41:53.485Z,99335.81
2022-10-25T09:43:01.749Z,99328.47
2022-10-25T09:44:03.197Z,99333.56
2022-10-25T09:45:15.059Z,99329.59
2022-10-25T09:46:24.419Z,99326.16
2022-10-25T09:47:32.558Z,99334.50
2022-10-25T09:48:40.443Z,99338.47
2022-10-25T09:49:44.526Z,99341.75
2022-10-25T09:51:04.672Z,99335.09
2022-10-25T09:52:15.807Z,99333.63
2022-10-25T09:53:21.596Z,99340.94
2022-10-25T09:54:28.674Z,99335.91
2022-10-25T09:55:55.860Z,99335.59
2022-10-25T09:56:57.302Z,99339.22
2022-10-25T09:57:58.993Z,99333.09
2022-10-25T09:59:00.403Z,99326.13
2022-10-25T10:00:01.886Z,99328.78
2022-10-25T10:01:33.531Z,99326.28
2022-10-25T10:02:35.175Z,99325.63
2022-10-25T10:03:36.676Z,99325.09
2022-10-25T10:04:38.968Z,99325.91
2022-10-25T10:05:54.048Z,99326.47
2022-10-25T10:06:57.692Z,99319.72
2022-10-25T10:07:59.115Z,99317.25
2022-10-25T10:09:02.796Z,99322.22
2022-10-25T10:10:05.672Z,99326.56
2022-10-25T10:11:14.206Z,99325.28
2022-10-25T10:12:22.168Z,99319.59
2022-10-25T10:13:28.353Z,99326.09
2022-10-25T10:14:41.206Z,99322.56
2022-10-25T10:15:54.141Z,99318.91
2022-10-25T10:16:57.149Z,99326.25
2022-10-25T10:18:17.376Z,99324.22
2022-10-25T10:19:23.215Z,99317.53
2022-10-25T10:20:24.601Z,99321.69
2022-10-25T10:21:26.017Z,99309.56
2022-10-25T10:22:27.430Z,99308.59
2022-10-25T10:23:33.388Z,99313.16
2022-10-25T10:24:36.400Z,99319.34
2022-10-25T10:25:37.828Z,99316.22
2022-10-25T10:26:46.521Z,99309.22
2022-10-25T10:27:49.517Z,99315.75
2022-10-25T10:28:54.430Z,99312.47
2022-10-25T10:30:04.192Z,99307.50
2022-10-25T10:31:06.315Z,99312.81
2022-10-25T10:32:23.435Z,99321.16
2022-10-25T10:33:27.373Z,99319.00
2022-10-25T10:34:28.762Z,99314.00
2022-10-25T10:35:34.210Z,99320.00
2022-10-25T10:36:35.627Z,99318.63
2022-10-25T10:37:37.034Z,99319.59
2022-10-25T10:38:38.463Z,99316.09
2022-10-25T10:39:49.981Z,99310.72
2022-10-25T10:40:53.367Z,99325.03
2022-10-25T10:41:59.304Z,99323.38
2022-10-25T10:43:00.708Z,99313.66
2022-10-25T10:44:28.165Z,99319.19
2022-10-25T10:45:29.571Z,99320.31
2022-10-25T10:46:30.997Z,99322.44
2022-10-25T10:47:34.495Z,99318.31
2022-10-25T10:48:42.079Z,99319.97
2022-10-25T10:49:44.756Z,99312.84
2022-10-25T10:50:50.035Z,99313.66
2022-10-25T10:51:51.467Z,99316.22
2022-10-25T10:52:55.179Z,99314.66
2022-10-25T10:54:12.111Z,99312.50
2022-10-25T10:55:32.589Z,99314.34
2022-10-25T10:56:34.028Z,99318.47
2022-10-25T10:57:35.592Z,99324.16
2022-10-25T10:58:40.109Z,99321.72
2022-10-25T10:59:51.895Z,99326.56
2022-10-25T11:00:55.846Z,99320.28
2022-10-25T11:01:57.539Z,99319.78
2022-10-25T11:02:59.022Z,99323.94
2022-10-25T11:04:01.186Z,99323.47
2022-10-25T11:05:34.428Z,99318.66
2022-10-25T11:06:35.866Z,99328.97
2022-10-25T11:07:39.926Z,99323.31
2022-10-25T11:08:42.521Z,99328.44
2022-10-25T11:09:43.913Z,99322.59
2022-10-25T11:10:45.396Z,99313.75
2022-10-25T11:12:06.339Z,99325.56
2022-10-25T11:13:09.055Z,99322.38
2022-10-25T11:14:12.277Z,99328.63
2022-10-25T11:15:14.379Z,99321.47
2022-10-25T11:16:34.513Z,99328.38
2022-10-25T11:17:37.468Z,99330.38
2022-10-25T11:18:47.800Z,99331.16
2022-10-25T11:19:58.323Z,99330.34
2022-10-25T11:21:05.379Z,99331.00
2022-10-25T11:22:29.397Z,99329.19
2022-10-25T11:23:49.633Z,99329.63
2022-10-25T11:24:57.073Z,99323.63
2022-10-25T11:26:10.856Z,99318.66
2022-10-25T11:27:15.032Z,99327.72
2022-10-25T11:28:23.153Z,99338.06
2022-10-25T11:29:43.471Z,99327.97
2022-10-25T11:30:44.853Z,99328.38
2022-10-25T11:32:18.678Z,99330.69
2022-10-25T11:33:27.091Z,99325.53
2022-10-25T11:34:34.499Z,99329.16
2022-10-25T11:35:58.826Z,99326.84
2022-10-25T11:37:00.203Z,99324.00
2022-10-25T11:38:24.908Z,99324.25
2022-10-25T11:39:43.685Z,99320.34
2022-10-25T11:41:01.628Z,99321.97
2022-10-25T11:43:29.548Z,99322.25
2022-10-25T11:44:44.326Z,99322.09
2022-10-25T11:45:50.641Z,99337.16
2022-10-25T11:47:02.708Z,99336.31
2022-10-25T11:48:07.118Z,99334.56
2022-10-25T11:49:14.342Z,99334.38
2022-10-25T11:50:18.651Z,99334.03
2022-10-25T11:51:31.924Z,99330.47
2022-10-25T11:52:39.265Z,99332.81
2022-10-25T11:53:59.252Z,99325.91
2022-10-25T11:55:20.893Z,99332.59
2022-10-25T11:56:28.832Z,99331.38
2022-10-25T11:57:30.248Z,99339.81
2022-10-25T11:58:34.638Z,99340.28
2022-10-25T11:59:45.395Z,99336.34
2022-10-25T12:01:05.382Z,99338.25
2022-10-25T12:02:18.836Z,99349.75
2022-10-25T12:03:39.032Z,99351.63
2022-10-25T12:04:46.878Z,99345.66
2022-10-25T12:06:07.144Z,99355.31
2022-10-25T12:07:20.596Z,99356.97
2022-10-25T12:08:21.959Z,99345.97
2022-10-25T12:09:25.916Z,99343.97
2022-10-25T12:10:27.295Z,99344.03
2022-10-25T12:11:31.134Z,99344.38
2022-10-25T12:12:40.359Z,99350.59
2022-10-25T12:13:47.355Z,99351.41
2022-10-25T12:14:51.888Z,99350.09
2022-10-25T12:15:55.084Z,99345.59
2022-10-25T12:16:57.808Z,99350.91
2022-10-25T12:17:59.245Z,99355.91
2022-10-25T12:19:21.153Z,99351.25
2022-10-25T12:20:25.354Z,99348.13
2022-10-25T12:21:28.285Z,99349.44
2022-10-25T12:22:50.116Z,99353.41
2022-10-25T12:23:53.846Z,99352.56
2022-10-25T12:25:04.177Z,99348.56
2022-10-25T12:26:06.981Z,99351.88
2022-10-25T12:27:10.380Z,99355.91
2022-10-25T12:28:30.297Z,99343.41
2022-10-25T12:29:37.265Z,99349.22
2022-10-25T12:30:39.722Z,99338.88
2022-10-25T12:31:44.097Z,99346.56
2022-10-25T12:32:49.440Z,99345.91
2022-10-25T12:33:57.837Z,99341.41
2022-10-25T12:35:00.939Z,99343.53
2022-10-25T12:36:05.008Z,99344.06
2022-10-25T12:37:11.673Z,99336.59
2022-10-25T12:38:17.383Z,99335.16
2022-10-25T12:39:22.420Z,99338.13
2022-10-25T12:41:33.818Z,99335.34
2022-10-25T12:42:54.257Z,99342.03
2022-10-25T12:44:10.679Z,99340.38
2022-10-25T12:45:28.241Z,99342.38
2022-10-25T12:46:35.864Z,99338.59
2022-10-25T12:47:46.116Z,99341.38